createdAt,value
2023-04-07T00:02:09.345Z,12.47
2023-04-07T00:04:37.919Z,12.23
2023-04-07T00:07:06.439Z,12.77
2023-04-07T00:09:34.924Z,13.20
2023-04-07T00:12:03.740Z,13.20
2023-04-07T00:14:32.234Z,13.80
2023-04-07T00:17:02.142Z,13.80
2023-04-07T00:19:30.610Z,14.27
2023-04-07T00:21:59.086Z,13.47
2023-04-07T00:24:34.216Z,14.10
2023-04-07T00:27:03.093Z,13.80
2023-04-07T00:29:31.567Z,14.90
2023-04-07T00:32:00.048Z,14.07
2023-04-07T00:34:29.916Z,14.07
2023-04-07T00:36:58.409Z,14.37
2023-04-07T00:39:27.627Z,14.00
2023-04-07T00:41:56.543Z,14.00
2023-04-07T00:44:25.090Z,14.03
2023-04-07T00:46:53.668Z,14.53
2023-04-07T00:49:22.347Z,14.10
2023-04-07T00:51:52.245Z,14.07
2023-04-07T00:54:20.910Z,13.83
2023-04-07T00:56:49.449Z,14.57
2023-04-07T00:59:18.236Z,14.40
2023-04-07T01:01:48.326Z,14.80
2023-04-07T01:04:22.497Z,15.10
2023-04-07T01:06:53.472Z,14.83
2023-04-07T01:09:25.040Z,16.00
2023-04-07T01:11:58.833Z,15.97
2023-04-07T01:14:28.543Z,15.90
2023-04-07T01:16:59.762Z,16.40
2023-04-07T01:19:34.299Z,16.03
2023-04-07T01:22:05.605Z,15.83
2023-04-07T01:24:44.560Z,15.97
2023-04-07T01:27:17.872Z,15.63
2023-04-07T01:29:50.571Z,16.60
2023-04-07T01:32:20.892Z,15.23
2023-04-07T01:34:50.796Z,14.73
2023-04-07T01:37:19.488Z,15.60
2023-04-07T01:39:47.991Z,15.60
2023-04-07T01:42:17.415Z,14.93
2023-04-07T01:44:46.737Z,15.50
2023-04-07T01:47:18.114Z,15.50
2023-04-07T01:49:47.273Z,14.93
2023-04-07T01:52:16.189Z,14.70
2023-04-07T01:54:45.078Z,15.43
2023-04-07T01:57:14.128Z,16.50
2023-04-07T01:59:42.632Z,16.43
2023-04-07T02:02:11.192Z,16.23
2023-04-07T02:04:46.945Z,16.27
2023-04-07T02:07:17.031Z,16.47
2023-04-07T02:09:45.619Z,16.07
2023-04-07T02:12:14.992Z,15.07
2023-04-07T02:14:44.329Z,14.97
2023-04-07T02:17:13.626Z,14.37
2023-04-07T02:19:44.474Z,15.33
2023-04-07T02:22:13.092Z,15.53
2023-04-07T02:24:43.717Z,15.20
2023-04-07T02:27:12.196Z,15.73
2023-04-07T02:29:40.919Z,16.23
2023-04-07T02:32:09.416Z,16.23
2023-04-07T02:34:38.085Z,16.03
2023-04-07T02:37:08.053Z,16.50
2023-04-07T02:39:36.517Z,16.33
2023-04-07T02:42:05.256Z,16.77
2023-04-07T02:44:33.802Z,17.53
2023-04-07T02:47:02.273Z,17.90
2023-04-07T02:49:30.756Z,18.70
2023-04-07T02:51:59.240Z,18.87
2023-04-07T02:54:29.065Z,17.30
2023-04-07T02:56:57.752Z,17.90
2023-04-07T02:59:26.214Z,17.73
2023-04-07T03:01:54.748Z,18.90
2023-04-07T03:04:23.907Z,18.43
2023-04-07T03:06:52.445Z,17.73
2023-04-07T03:09:20.895Z,18.10
2023-04-07T03:11:50.729Z,18.87
2023-04-07T03:14:19.249Z,19.37
2023-04-07T03:16:47.811Z,19.00
2023-04-07T03:19:16.458Z,18.60
2023-04-07T03:21:44.941Z,18.63
2023-04-07T03:24:13.433Z,18.57
2023-04-07T03:26:41.942Z,18.87
2023-04-07T03:29:11.832Z,19.13
2023-04-07T03:31:40.304Z,20.70
2023-04-07T03:34:08.854Z,19.70
2023-04-07T03:36:37.474Z,19.80
2023-04-07T03:39:06.685Z,20.50
2023-04-07T03:41:35.387Z,21.27
2023-04-07T03:44:04.039Z,21.13
2023-04-07T03:46:34.196Z,21.63
2023-04-07T03:49:02.712Z,21.00
2023-04-07T03:51:31.196Z,21.40
2023-04-07T03:53:59.654Z,22.50
2023-04-07T03:56:29.039Z,22.43
2023-04-07T03:58:57.774Z,22.40
2023-04-07T04:01:26.408Z,23.53
2023-04-07T04:03:56.540Z,22.33
2023-04-07T04:06:25.248Z,23.60
2023-04-07T04:08:53.729Z,22.67
2023-04-07T04:11:22.612Z,22.37
2023-04-07T04:13:51.695Z,23.57
2023-04-07T04:16:20.564Z,22.67
2023-04-07T04:18:49.056Z,23.97
2023-04-07T04:21:19.001Z,23.57
2023-04-07T04:23:47.456Z,23.40
2023-04-07T04:26:16.091Z,22.93
2023-04-07T04:28:44.585Z,26.90
2023-04-07T04:31:13.068Z,25.83
2023-04-07T04:33:41.843Z,26.10
2023-04-07T04:36:10.588Z,25.60
2023-04-07T04:38:40.568Z,26.10
2023-04-07T04:41:09.133Z,24.70
2023-04-07T04:43:37.986Z,24.23
2023-04-07T04:46:06.482Z,25.03
2023-04-07T04:48:34.950Z,25.30
2023-04-07T04:51:03.433Z,25.83
2023-04-07T04:53:31.889Z,25.67
2023-04-07T04:56:01.756Z,24.23
2023-04-07T04:58:30.270Z,25.50
2023-04-07T05:01:00.433Z,25.43
2023-04-07T05:03:29.276Z,25.50
2023-04-07T05:05:57.925Z,24.23
2023-04-07T05:08:26.396Z,26.10
2023-04-07T05:10:55.245Z,26.87
2023-04-07T05:13:25.831Z,26.17
2023-04-07T05:15:54.711Z,26.27
2023-04-07T05:18:23.216Z,26.07
2023-04-07T05:20:51.882Z,26.93
2023-04-07T05:23:20.377Z,26.27
2023-04-07T05:25:48.833Z,27.17
2023-04-07T05:28:17.440Z,26.97
2023-04-07T05:30:47.288Z,26.47
2023-04-07T05:33:15.728Z,25.07
2023-04-07T05:35:46.185Z,25.43
2023-04-07T05:38:14.700Z,26.17
2023-04-07T05:40:43.174Z,25.93
2023-04-07T05:43:11.997Z,25.67
2023-04-07T05:45:41.159Z,24.03
2023-04-07T05:48:11.513Z,24.20
2023-04-07T05:50:40.077Z,24.60
2023-04-07T05:53:08.611Z,24.47
2023-04-07T05:55:37.131Z,24.63
2023-04-07T05:58:05.716Z,25.77
2023-04-07T06:00:34.156Z,25.77
2023-04-07T06:03:03.908Z,27.53
2023-04-07T06:05:34.773Z,25.90
2023-04-07T06:08:03.294Z,27.30
2023-04-07T06:10:31.938Z,27.17
2023-04-07T06:13:00.453Z,26.87
2023-04-07T06:15:28.929Z,25.50
2023-04-07T06:17:57.413Z,25.07
2023-04-07T06:20:27.880Z,27.30
2023-04-07T06:22:57.961Z,25.83
2023-04-07T06:25:26.462Z,25.77
2023-04-07T06:27:55.685Z,26.67
2023-04-07T06:30:24.220Z,27.60
2023-04-07T06:32:52.793Z,24.77
2023-04-07T06:35:21.367Z,26.03
2023-04-07T06:37:49.858Z,28.33
2023-04-07T06:40:19.766Z,26.80
2023-04-07T06:42:48.236Z,23.93
2023-04-07T06:45:16.872Z,25.03
2023-04-07T06:47:45.379Z,26.27
2023-04-07T06:50:13.876Z,25.97
2023-04-07T06:52:42.319Z,26.20
2023-04-07T06:55:11.552Z,20.53
2023-04-07T06:57:41.748Z,20.93
2023-04-07T07:00:10.927Z,25.27
2023-04-07T07:02:39.589Z,25.10
2023-04-07T07:05:08.624Z,17.43
2023-04-07T07:07:37.084Z,20.17
2023-04-07T07:10:05.704Z,25.13
2023-04-07T07:12:34.184Z,23.07
2023-04-07T07:15:04.179Z,14.47
2023-04-07T07:17:32.658Z,22.17
2023-04-07T07:20:01.133Z,23.77
2023-04-07T07:22:29.594Z,25.80
2023-04-07T07:24:58.063Z,27.50
2023-04-07T07:27:27.292Z,26.70
2023-04-07T07:29:55.776Z,16.60
2023-04-07T07:32:25.674Z,20.63
2023-04-07T07:34:54.181Z,25.73
2023-04-07T07:37:22.647Z,27.33
2023-04-07T07:39:51.077Z,27.03
2023-04-07T07:42:19.572Z,24.27
2023-04-07T07:44:48.088Z,14.80
2023-04-07T07:47:16.497Z,21.47
2023-04-07T07:49:46.438Z,23.50
2023-04-07T07:52:14.928Z,19.77
2023-04-07T07:54:43.363Z,13.40
2023-04-07T07:57:11.847Z,20.77
2023-04-07T07:59:40.675Z,22.13
2023-04-07T08:02:09.519Z,18.60
2023-04-07T08:04:39.088Z,15.73
2023-04-07T08:07:08.989Z,17.70
2023-04-07T08:09:37.820Z,20.83
2023-04-07T08:12:06.335Z,16.77
2023-04-07T08:14:34.783Z,15.90
2023-04-07T08:17:03.214Z,18.47
2023-04-07T08:19:31.869Z,20.90
2023-04-07T08:22:00.688Z,14.30
2023-04-07T08:24:30.718Z,15.47
2023-04-07T08:26:59.228Z,18.37
2023-04-07T08:29:27.733Z,18.50
2023-04-07T08:31:56.261Z,13.23
2023-04-07T08:34:24.794Z,12.90
2023-04-07T08:36:53.264Z,17.13
2023-04-07T08:39:22.866Z,19.77
2023-04-07T08:41:53.212Z,13.43
2023-04-07T08:44:24.010Z,14.87
2023-04-07T08:46:53.456Z,16.10
2023-04-07T08:49:23.371Z,15.60
2023-04-07T08:51:52.662Z,15.00
2023-04-07T08:54:22.584Z,15.27
2023-04-07T08:56:51.216Z,17.07
2023-04-07T08:59:25.461Z,17.60
2023-04-07T09:01:54.443Z,17.20
2023-04-07T09:04:24.735Z,18.43
2023-04-07T09:06:53.192Z,19.13
2023-04-07T09:09:21.804Z,20.17
2023-04-07T09:11:51.467Z,19.27
2023-04-07T09:14:22.858Z,19.37
2023-04-07T09:16:51.337Z,19.30
2023-04-07T09:19:19.788Z,22.90
2023-04-07T09:21:51.932Z,20.97
2023-04-07T09:24:23.976Z,19.50
2023-04-07T09:26:52.492Z,23.40
2023-04-07T09:29:22.967Z,24.80
2023-04-07T09:31:55.118Z,22.93
2023-04-07T09:34:27.176Z,20.40
2023-04-07T09:36:55.854Z,25.50
2023-04-07T09:39:24.437Z,24.97
2023-04-07T09:41:55.970Z,21.33
2023-04-07T09:44:26.639Z,21.00
2023-04-07T09:46:56.466Z,26.67
2023-04-07T09:49:25.650Z,24.00
2023-04-07T09:51:54.736Z,22.53
2023-04-07T09:54:36.270Z,25.60
2023-04-07T09:57:05.303Z,28.53
2023-04-07T09:59:35.997Z,23.57
2023-04-07T10:02:07.303Z,22.70
2023-04-07T10:04:36.466Z,25.53
2023-04-07T10:07:05.035Z,26.87
2023-04-07T10:09:33.626Z,24.43
2023-04-07T10:12:02.105Z,22.33
2023-04-07T10:14:33.335Z,29.93
2023-04-07T10:17:03.683Z,31.40
2023-04-07T10:19:33.786Z,26.73
2023-04-07T10:22:04.044Z,32.93
2023-04-07T10:24:39.600Z,36.43
2023-04-07T10:27:11.641Z,27.83
2023-04-07T10:29:43.339Z,24.20
2023-04-07T10:32:13.255Z,36.77
2023-04-07T10:34:58.225Z,35.13
2023-04-07T10:37:27.983Z,40.03
2023-04-07T10:40:15.057Z,39.50
2023-04-07T10:42:47.824Z,32.37
2023-04-07T10:45:17.335Z,45.83
2023-04-07T10:48:04.252Z,39.70
2023-04-07T10:50:34.159Z,45.53
2023-04-07T10:53:09.473Z,42.83
2023-04-07T10:55:39.250Z,32.70
2023-04-07T10:58:21.031Z,46.30
2023-04-07T11:01:04.867Z,39.03
2023-04-07T11:03:35.227Z,47.83
2023-04-07T11:06:09.268Z,61.20
2023-04-07T11:08:38.152Z,66.60
2023-04-07T11:11:09.230Z,50.47
2023-04-07T11:13:43.179Z,43.00
2023-04-07T11:16:11.912Z,52.67
2023-04-07T11:18:40.737Z,43.33
2023-04-07T11:21:10.901Z,45.63
2023-04-07T11:23:40.924Z,60.40
2023-04-07T11:26:10.719Z,47.80
2023-04-07T11:28:47.287Z,45.87
2023-04-07T11:31:24.519Z,54.23
2023-04-07T11:33:56.806Z,47.13
2023-04-07T11:36:30.008Z,51.67
2023-04-07T11:38:58.789Z,62.50
2023-04-07T11:41:28.454Z,68.53
2023-04-07T11:44:06.657Z,71.37
2023-04-07T11:46:35.444Z,70.93
2023-04-07T11:49:10.987Z,72.27
2023-04-07T11:51:41.086Z,68.90
2023-04-07T11:54:10.180Z,51.77
2023-04-07T11:56:45.845Z,34.17
2023-04-07T11:59:24.115Z,39.77
2023-04-07T12:01:55.290Z,40.50
2023-04-07T12:04:25.687Z,34.67
2023-04-07T12:06:55.620Z,48.80
2023-04-07T12:09:28.735Z,41.47
2023-04-07T12:11:58.421Z,41.43
2023-04-07T12:14:27.786Z,48.50
2023-04-07T12:16:58.232Z,34.80
2023-04-07T12:19:28.079Z,41.77
2023-04-07T12:21:58.072Z,40.67
2023-04-07T12:24:27.119Z,32.60
2023-04-07T12:26:56.276Z,46.17
2023-04-07T12:29:24.781Z,45.93
2023-04-07T12:31:53.319Z,29.10
2023-04-07T12:34:22.012Z,43.93
2023-04-07T12:36:50.764Z,45.20
2023-04-07T12:39:20.665Z,29.90
2023-04-07T12:41:51.241Z,46.83
2023-04-07T12:44:19.887Z,47.33
2023-04-07T12:46:48.355Z,32.20
2023-04-07T12:49:16.860Z,45.80
2023-04-07T12:51:46.023Z,48.53
2023-04-07T12:54:15.037Z,30.97
2023-04-07T12:56:44.917Z,50.17
2023-04-07T12:59:13.992Z,61.83
2023-04-07T13:01:42.828Z,40.17
2023-04-07T13:04:11.748Z,42.23
2023-04-07T13:06:40.268Z,61.83
2023-04-07T13:09:08.731Z,39.13
2023-04-07T13:11:37.374Z,38.50
2023-04-07T13:14:07.713Z,64.57
2023-04-07T13:16:36.211Z,52.73
2023-04-07T13:19:05.366Z,30.23
2023-04-07T13:21:46.106Z,50.30
2023-04-07T13:24:15.992Z,40.60
2023-04-07T13:26:44.583Z,34.20
2023-04-07T13:29:14.471Z,44.93
2023-04-07T13:31:42.998Z,33.47
2023-04-07T13:34:11.479Z,48.07
2023-04-07T13:36:39.937Z,46.77
2023-04-07T13:39:09.136Z,43.33
2023-04-07T13:41:46.844Z,58.67
2023-04-07T13:44:15.331Z,65.83
2023-04-07T13:46:43.758Z,72.87
2023-04-07T13:49:12.184Z,82.60
2023-04-07T13:51:40.876Z,88.20
2023-04-07T13:54:09.323Z,88.73
2023-04-07T13:56:38.553Z,84.27
2023-04-07T13:59:08.394Z,91.10
2023-04-07T14:01:39.173Z,94.67
2023-04-07T14:04:08.750Z,98.27
2023-04-07T14:06:38.091Z,97.77
2023-04-07T14:09:07.038Z,99.13
2023-04-07T14:11:36.177Z,96.70
2023-04-07T14:14:04.628Z,98.30
2023-04-07T14:16:34.434Z,102.57
2023-04-07T14:19:03.384Z,104.00
2023-04-07T14:21:31.981Z,108.07
2023-04-07T14:24:00.395Z,108.17
2023-04-07T14:26:28.787Z,106.77
2023-04-07T14:28:57.491Z,98.27
2023-04-07T14:31:26.127Z,62.93
2023-04-07T14:33:56.493Z,39.83
2023-04-07T14:36:25.425Z,56.77
2023-04-07T14:38:54.275Z,45.40
2023-04-07T14:41:23.075Z,44.93
2023-04-07T14:43:56.167Z,71.33
2023-04-07T14:46:24.655Z,58.53
2023-04-07T14:48:53.452Z,46.13
2023-04-07T14:51:23.380Z,65.73
2023-04-07T14:53:55.608Z,72.20
2023-04-07T14:56:24.835Z,49.83
2023-04-07T14:58:53.476Z,47.30
2023-04-07T15:01:21.894Z,72.17
2023-04-07T15:03:51.913Z,83.10
2023-04-07T15:06:21.328Z,86.73
2023-04-07T15:08:51.949Z,68.10
2023-04-07T15:11:21.662Z,42.60
2023-04-07T15:13:50.723Z,45.33
2023-04-07T15:16:19.630Z,66.80
2023-04-07T15:18:48.356Z,58.60
2023-04-07T15:21:16.784Z,38.97
2023-04-07T15:23:45.803Z,47.80
2023-04-07T15:26:15.581Z,73.03
2023-04-07T15:28:43.976Z,82.13
2023-04-07T15:31:12.518Z,80.80
2023-04-07T15:33:41.488Z,52.60
2023-04-07T15:36:10.166Z,42.23
2023-04-07T15:38:39.428Z,60.27
2023-04-07T15:41:08.377Z,75.70
2023-04-07T15:43:38.337Z,87.43
2023-04-07T15:46:07.213Z,64.03
2023-04-07T15:48:35.648Z,39.63
2023-04-07T15:51:04.078Z,50.93
2023-04-07T15:53:32.513Z,71.13
2023-04-07T15:56:01.453Z,83.00
2023-04-07T15:58:30.057Z,59.47
2023-04-07T16:01:00.064Z,43.43
2023-04-07T16:03:29.096Z,56.90
2023-04-07T16:05:57.706Z,75.13
2023-04-07T16:08:26.316Z,61.97
2023-04-07T16:10:54.709Z,36.57
2023-04-07T16:13:23.115Z,47.50
2023-04-07T16:15:51.558Z,62.87
2023-04-07T16:18:21.802Z,55.67
2023-04-07T16:20:50.336Z,39.00
2023-04-07T16:23:18.788Z,37.47
2023-04-07T16:25:47.207Z,55.90
2023-04-07T16:28:15.605Z,66.20
2023-04-07T16:30:44.672Z,71.43
2023-04-07T16:33:13.118Z,73.53
2023-04-07T16:35:42.972Z,72.60
2023-04-07T16:38:11.806Z,72.80
2023-04-07T16:40:40.785Z,72.50
2023-04-07T16:43:09.751Z,68.37
2023-04-07T16:45:38.280Z,68.53
2023-04-07T16:48:06.811Z,67.37
2023-04-07T16:50:35.371Z,70.93
2023-04-07T16:53:05.253Z,67.77
2023-04-07T16:55:33.654Z,59.80
2023-04-07T16:58:02.056Z,50.67
2023-04-07T17:00:30.514Z,34.77
2023-04-07T17:02:59.058Z,24.77
2023-04-07T17:05:28.074Z,20.37
2023-04-07T17:07:57.365Z,16.93
2023-04-07T17:10:27.249Z,14.67
2023-04-07T17:12:56.311Z,12.87
2023-04-07T17:15:25.016Z,12.57
2023-04-07T17:17:53.488Z,11.90
2023-04-07T17:20:22.752Z,12.23
2023-04-07T17:22:51.686Z,12.00
2023-04-07T17:25:20.226Z,10.80
2023-04-07T17:27:50.040Z,11.27
2023-04-07T17:30:18.632Z,11.10
2023-04-07T17:32:47.392Z,10.97
2023-04-07T17:35:15.882Z,9.57
2023-04-07T17:37:44.314Z,10.17
2023-04-07T17:40:13.508Z,10.40
2023-04-07T17:42:41.931Z,10.10
2023-04-07T17:45:12.742Z,10.33
2023-04-07T17:47:41.245Z,10.70
2023-04-07T17:50:10.714Z,10.73
2023-04-07T17:52:39.155Z,10.20
2023-04-07T17:55:08.128Z,10.07
2023-04-07T17:57:36.863Z,10.57
2023-04-07T18:00:06.982Z,10.17
2023-04-07T18:02:37.439Z,9.30
2023-04-07T18:05:08.285Z,9.47
2023-04-07T18:07:36.681Z,9.70
2023-04-07T18:10:05.208Z,10.03
2023-04-07T18:12:33.820Z,9.90
2023-04-07T18:15:02.567Z,9.70
2023-04-07T18:17:31.006Z,9.37
2023-04-07T18:20:00.853Z,9.70
2023-04-07T18:22:29.276Z,9.47
2023-04-07T18:24:57.702Z,9.43
2023-04-07T18:27:28.406Z,9.70
2023-04-07T18:29:57.161Z,8.93
2023-04-07T18:32:25.670Z,8.93
2023-04-07T18:34:54.959Z,9.30
2023-04-07T18:37:25.114Z,8.90
2023-04-07T18:39:53.864Z,9.90
2023-04-07T18:42:22.305Z,9.43
2023-04-07T18:44:50.689Z,8.67
2023-04-07T18:47:19.114Z,8.43
2023-04-07T18:49:47.579Z,7.90
2023-04-07T18:52:16.012Z,8.03
2023-04-07T18:54:46.002Z,7.90
2023-04-07T18:57:14.459Z,7.57
2023-04-07T18:59:43.682Z,7.07
2023-04-07T19:02:12.178Z,7.20
2023-04-07T19:04:40.745Z,7.17
2023-04-07T19:07:09.369Z,7.03
2023-04-07T19:09:37.903Z,6.83
2023-04-07T19:12:09.371Z,7.03
2023-04-07T19:14:37.860Z,6.90
2023-04-07T19:17:06.523Z,6.87
2023-04-07T19:19:34.959Z,6.60
2023-04-07T19:22:03.332Z,6.87
2023-04-07T19:24:31.762Z,6.80
2023-04-07T19:27:00.213Z,6.83
2023-04-07T19:29:30.044Z,6.43
2023-04-07T19:31:59.005Z,7.27
2023-04-07T19:34:27.457Z,8.00
2023-04-07T19:36:55.902Z,7.40
2023-04-07T19:39:25.415Z,7.43
2023-04-07T19:41:53.831Z,7.00
2023-04-07T19:44:22.273Z,6.93
2023-04-07T19:46:53.378Z,6.50
2023-04-07T19:49:21.842Z,7.07
2023-04-07T19:51:50.266Z,6.47
2023-04-07T19:54:18.643Z,6.63
2023-04-07T19:56:47.545Z,6.77
2023-04-07T19:59:15.945Z,6.33
2023-04-07T20:01:44.625Z,6.33
2023-04-07T20:04:14.666Z,6.17
2023-04-07T20:06:43.180Z,6.90
2023-04-07T20:09:11.631Z,6.07
2023-04-07T20:11:40.052Z,6.47
2023-04-07T20:14:08.471Z,6.30
2023-04-07T20:16:37.287Z,6.57
2023-04-07T20:19:05.796Z,5.97
2023-04-07T20:21:35.658Z,6.47
2023-04-07T20:24:05.228Z,7.20
2023-04-07T20:26:33.643Z,6.43
2023-04-07T20:29:02.056Z,6.83
2023-04-07T20:31:30.809Z,5.73
2023-04-07T20:34:00.097Z,6.80
2023-04-07T20:36:28.546Z,6.53
2023-04-07T20:38:58.719Z,6.33
2023-04-07T20:41:27.184Z,6.53
2023-04-07T20:43:55.854Z,6.20
2023-04-07T20:46:24.369Z,6.53
2023-04-07T20:48:52.853Z,6.00
2023-04-07T20:51:22.168Z,6.30
2023-04-07T20:53:50.758Z,6.27
2023-04-07T20:56:21.702Z,6.17
2023-04-07T20:58:50.231Z,6.20
2023-04-07T21:01:18.786Z,6.33
2023-04-07T21:03:47.548Z,6.37
2023-04-07T21:06:16.236Z,5.80
2023-04-07T21:08:44.650Z,6.60
2023-04-07T21:11:13.071Z,6.97
2023-04-07T21:13:42.859Z,7.43
2023-04-07T21:16:11.420Z,8.20
2023-04-07T21:18:40.000Z,7.90
2023-04-07T21:21:08.635Z,8.67
2023-04-07T21:23:37.074Z,8.23
2023-04-07T21:26:05.530Z,9.27
2023-04-07T21:28:33.947Z,9.60
2023-04-07T21:31:04.431Z,10.23
2023-04-07T21:33:33.013Z,9.73
2023-04-07T21:36:01.625Z,9.73
2023-04-07T21:38:30.109Z,9.77
2023-04-07T21:40:58.643Z,10.47
2023-04-07T21:43:28.832Z,9.77
2023-04-07T21:45:57.309Z,11.13
2023-04-07T21:48:27.113Z,10.00
2023-04-07T21:50:55.577Z,10.07
2023-04-07T21:53:23.995Z,10.93
2023-04-07T21:55:52.665Z,10.37
2023-04-07T21:58:23.467Z,10.83
2023-04-07T22:00:51.916Z,10.37
2023-04-07T22:03:20.550Z,11.07
2023-04-07T22:05:50.524Z,10.97
2023-04-07T22:08:19.326Z,11.43
2023-04-07T22:10:48.041Z,10.83
2023-04-07T22:13:16.439Z,11.00
2023-04-07T22:15:44.901Z,10.30
2023-04-07T22:18:13.629Z,10.40
2023-04-07T22:20:42.180Z,10.13
2023-04-07T22:23:12.000Z,12.03
2023-04-07T22:25:40.450Z,13.27
2023-04-07T22:28:08.858Z,13.50
2023-04-07T22:30:37.310Z,12.63
2023-04-07T22:33:07.063Z,14.03
2023-04-07T22:35:35.651Z,14.67
2023-04-07T22:38:04.169Z,14.70
2023-04-07T22:40:34.147Z,15.00
2023-04-07T22:43:02.872Z,15.57
2023-04-07T22:45:31.661Z,14.90
2023-04-07T22:48:00.217Z,15.73
2023-04-07T22:50:28.747Z,16.20
2023-04-07T22:52:57.172Z,15.40
2023-04-07T22:55:25.629Z,15.80
2023-04-07T22:57:55.402Z,14.80
2023-04-07T23:00:23.842Z,16.03
2023-04-07T23:02:52.562Z,15.27
2023-04-07T23:05:21.419Z,16.47
2023-04-07T23:07:51.368Z,15.83
2023-04-07T23:10:20.066Z,15.87
2023-04-07T23:12:48.493Z,15.57
2023-04-07T23:15:18.360Z,15.53
2023-04-07T23:17:47.717Z,16.20
2023-04-07T23:20:16.278Z,16.17
2023-04-07T23:22:44.691Z,15.33
2023-04-07T23:25:13.190Z,15.37
2023-04-07T23:27:41.591Z,15.63
2023-04-07T23:30:10.750Z,16.73
2023-04-07T23:32:40.848Z,16.07
2023-04-07T23:35:09.682Z,15.77
2023-04-07T23:37:38.127Z,14.90
2023-04-07T23:40:07.020Z,15.33
2023-04-07T23:42:35.507Z,16.27
2023-04-07T23:45:03.993Z,16.47
2023-04-07T23:47:32.448Z,15.97
2023-04-07T23:50:02.622Z,15.20
2023-04-07T23:52:31.045Z,14.97
2023-04-07T23:54:59.487Z,15.03
2023-04-07T23:57:27.894Z,14.90
2023-04-07T23:59:56.435Z,14.83
